Time;durP1;ratioP1;P1;durP2;ratioP2;P2;SDS_P1;SDS_P2;PMS_P1;PMS_P2;Temp;Humidity;BMP_temperature;BMP_pressure;BME280_temperature;BME280_humidity;BME280_pressure;Samples;Min_cycle;Max_cycle;Signal;HPM_P1;HPM_P2
2022/01/31 00:00:58;;;;;;;;;;;5.50;75.80;;;;;;4996216;28;20424;-74
2022/01/31 00:03:24;;;;;;;;;;;5.40;75.80;;;;;;4996476;28;19909;-62
2022/01/31 00:05:49;;;;;;;;;;;5.40;76.50;;;;;;4996225;28;19953;-65
2022/01/31 00:08:21;;;;;;;;;;;5.40;76.20;;;;;;4996338;28;19918;-62
2022/01/31 00:10:47;;;;;;;;;;;5.40;75.80;;;;;;4996117;28;19910;-62
2022/01/31 00:13:19;;;;;;;;;;;5.40;76.00;;;;;;4996187;28;19917;-63
2022/01/31 00:15:52;;;;;;;;;;;5.50;75.90;;;;;;4996040;28;20392;-63
2022/01/31 00:18:18;;;;;;;;;;;5.50;75.00;;;;;;4995791;28;20274;-63
2022/01/31 00:20:43;;;;;;;;;;;5.70;74.20;;;;;;4995898;28;19917;-62
2022/01/31 00:23:09;;;;;;;;;;;5.70;73.00;;;;;;4996060;28;19913;-63
2022/01/31 00:25:34;;;;;;;;;;;5.60;74.10;;;;;;4996061;28;19916;-62
2022/01/31 00:28:00;;;;;;;;;;;5.70;74.50;;;;;;4995535;28;19989;-63
2022/01/31 00:30:26;;;;;;;;;;;5.70;74.30;;;;;;4978447;28;19910;-62
2022/01/31 00:32:51;;;;;;;;;;;5.70;74.20;;;;;;4995834;28;19961;-63
2022/01/31 00:35:17;;;;;;;;;;;5.70;73.50;;;;;;4995859;28;19910;-64
2022/01/31 00:37:42;;;;;;;;;;;5.70;73.80;;;;;;4995612;28;19910;-62
2022/01/31 00:40:09;;;;;;;;;;;5.70;74.10;;;;;;4995741;28;20250;-63
2022/01/31 00:42:35;;;;;;;;;;;5.60;73.90;;;;;;4995650;28;19909;-64
2022/01/31 00:45:14;;;;;;;;;;;5.60;72.40;;;;;;4995729;28;19914;-62
2022/01/31 00:47:48;;;;;;;;;;;5.60;72.40;;;;;;4995540;28;19910;-63
2022/01/31 00:50:15;;;;;;;;;;;5.60;72.40;;;;;;4977767;28;19941;-62
2022/01/31 00:52:42;;;;;;;;;;;5.80;72.20;;;;;;4995764;28;19914;-63
2022/01/31 00:55:09;;;;;;;;;;;5.80;72.50;;;;;;4995393;28;19910;-63
2022/01/31 00:57:34;;;;;;;;;;;5.70;70.40;;;;;;4977956;28;19910;-62
2022/01/31 01:00:00;;;;;;;;;;;5.90;71.80;;;;;;4995282;28;19996;-63
2022/01/31 01:02:26;;;;;;;;;;;5.90;71.00;;;;;;4995571;28;20078;-63
2022/01/31 01:04:52;;;;;;;;;;;5.90;71.00;;;;;;4995147;28;19916;-62
2022/01/31 01:07:19;;;;;;;;;;;6.00;70.80;;;;;;4995193;28;19936;-62
2022/01/31 01:09:45;;;;;;;;;;;6.00;71.60;;;;;;4994952;28;19922;-62
2022/01/31 01:12:12;;;;;;;;;;;6.00;72.40;;;;;;4994929;28;19918;-63
2022/01/31 01:14:38;;;;;;;;;;;6.00;71.60;;;;;;4994850;28;19922;-62
2022/01/31 01:17:03;;;;;;;;;;;5.80;72.30;;;;;;4995480;28;19956;-63
2022/01/31 01:19:29;;;;;;;;;;;5.80;72.90;;;;;;4995184;28;20385;-63
2022/01/31 01:21:54;;;;;;;;;;;5.80;73.40;;;;;;4994798;28;19909;-62
2022/01/31 01:24:20;;;;;;;;;;;5.80;72.30;;;;;;4994933;28;19917;-62
2022/01/31 01:26:47;;;;;;;;;;;5.80;71.80;;;;;;4995029;28;19910;-62
2022/01/31 01:29:13;;;;;;;;;;;5.80;71.80;;;;;;4994776;28;19960;-64
2022/01/31 01:31:39;;;;;;;;;;;5.90;71.70;;;;;;4995044;28;19910;-62
2022/01/31 01:34:05;;;;;;;;;;;6.00;71.60;;;;;;4994937;28;19917;-65
2022/01/31 01:36:32;;;;;;;;;;;6.10;69.70;;;;;;4994775;28;19913;-63
2022/01/31 01:38:58;;;;;;;;;;;6.30;68.70;;;;;;4994515;28;19982;-66
2022/01/31 01:41:23;;;;;;;;;;;6.30;68.20;;;;;;4994711;28;20373;-65
2022/01/31 01:43:49;;;;;;;;;;;6.20;68.40;;;;;;4994775;28;19910;-67
2022/01/31 01:46:15;;;;;;;;;;;6.20;69.40;;;;;;4993821;28;20356;-69
2022/01/31 01:48:40;;;;;;;;;;;6.20;68.60;;;;;;4994544;28;19921;-67
2022/01/31 01:51:06;;;;;;;;;;;6.30;68.00;;;;;;4994535;28;19980;-62
2022/01/31 01:53:32;;;;;;;;;;;6.50;66.60;;;;;;4994680;28;19910;-62
2022/01/31 01:55:57;;;;;;;;;;;6.60;65.40;;;;;;4977135;28;20269;-62
2022/01/31 01:58:24;;;;;;;;;;;6.50;66.20;;;;;;4994238;28;19910;-62
2022/01/31 02:01:01;;;;;;;;;;;6.50;65.30;;;;;;4994344;28;19910;-63
2022/01/31 02:03:27;;;;;;;;;;;6.70;64.80;;;;;;4994224;28;19945;-62
2022/01/31 02:05:56;;;;;;;;;;;6.40;66.90;;;;;;4994538;28;19910;-63
2022/01/31 02:08:22;;;;;;;;;;;6.30;69.00;;;;;;4994172;28;19917;-62
2022/01/31 02:10:48;;;;;;;;;;;6.00;69.20;;;;;;4994367;28;19913;-62
2022/01/31 02:13:17;;;;;;;;;;;5.70;70.60;;;;;;4994304;28;20270;-62
2022/01/31 02:15:48;;;;;;;;;;;5.60;72.10;;;;;;4993922;28;20001;-63
2022/01/31 02:18:16;;;;;;;;;;;5.50;72.00;;;;;;4993743;28;20450;-64
2022/01/31 02:20:42;;;;;;;;;;;5.50;72.60;;;;;;4993991;28;19956;-62
2022/01/31 02:23:09;;;;;;;;;;;5.40;72.00;;;;;;4994374;28;19909;-62
2022/01/31 02:25:50;;;;;;;;;;;5.40;72.00;;;;;;4993982;28;19910;-62
2022/01/31 02:28:16;;;;;;;;;;;5.30;72.30;;;;;;4994227;28;19918;-62
2022/01/31 02:30:44;;;;;;;;;;;5.30;72.50;;;;;;4994095;28;19918;-62
2022/01/31 02:33:10;;;;;;;;;;;5.30;71.90;;;;;;4994189;28;19916;-62
2022/01/31 02:35:35;;;;;;;;;;;5.30;72.20;;;;;;4994020;28;19992;-62
2022/01/31 02:38:01;;;;;;;;;;;5.30;72.30;;;;;;4993997;28;19949;-62
2022/01/31 02:40:27;;;;;;;;;;;5.30;72.60;;;;;;4993804;28;20354;-63
2022/01/31 02:42:53;;;;;;;;;;;5.30;72.80;;;;;;4993913;28;19906;-63
2022/01/31 02:45:18;;;;;;;;;;;5.20;73.30;;;;;;4993839;28;19910;-62
2022/01/31 02:47:51;;;;;;;;;;;5.10;73.60;;;;;;4993906;28;19956;-62
2022/01/31 02:50:17;;;;;;;;;;;5.10;73.70;;;;;;4993696;28;20008;-62
2022/01/31 02:52:49;;;;;;;;;;;5.10;73.40;;;;;;4993646;28;19932;-63
2022/01/31 02:55:17;;;;;;;;;;;5.10;73.00;;;;;;4994033;28;19917;-62
2022/01/31 02:57:43;;;;;;;;;;;5.30;72.80;;;;;;4995757;28;19910;-62
2022/01/31 03:00:10;;;;;;;;;;;5.50;71.70;;;;;;4997606;28;19916;-63
2022/01/31 03:02:35;;;;;;;;;;;5.30;72.30;;;;;;4997563;28;19918;-62
2022/01/31 03:05:01;;;;;;;;;;;5.30;72.80;;;;;;4997324;28;19960;-63
2022/01/31 03:07:26;;;;;;;;;;;5.30;73.30;;;;;;4997373;28;19910;-62
2022/01/31 03:09:52;;;;;;;;;;;5.30;73.50;;;;;;4997049;28;19968;-62
2022/01/31 03:12:18;;;;;;;;;;;5.30;73.30;;;;;;4997239;28;19909;-63
2022/01/31 03:14:43;;;;;;;;;;;5.60;71.60;;;;;;4997254;28;19922;-62
2022/01/31 03:17:10;;;;;;;;;;;5.70;70.30;;;;;;4997191;28;19937;-62
2022/01/31 03:19:40;;;;;;;;;;;5.70;70.90;;;;;;4996783;28;19949;-63
2022/01/31 03:22:06;;;;;;;;;;;5.60;71.30;;;;;;4997327;28;19949;-63
2022/01/31 03:24:32;;;;;;;;;;;5.60;72.10;;;;;;4979658;28;19917;-63
2022/01/31 03:26:58;;;;;;;;;;;5.60;71.80;;;;;;4997051;28;19910;-63
2022/01/31 03:29:24;;;;;;;;;;;5.60;72.00;;;;;;4996619;28;20285;-63
2022/01/31 03:31:49;;;;;;;;;;;5.50;73.00;;;;;;4996989;28;19909;-62
2022/01/31 03:34:15;;;;;;;;;;;5.50;73.50;;;;;;4996850;28;19910;-62
2022/01/31 03:36:42;;;;;;;;;;;5.50;74.00;;;;;;4996801;28;19957;-62
2022/01/31 03:39:08;;;;;;;;;;;5.50;74.50;;;;;;4996808;28;19956;-62
2022/01/31 03:41:34;;;;;;;;;;;5.50;74.20;;;;;;4996834;28;20401;-63
2022/01/31 03:44:00;;;;;;;;;;;5.70;74.30;;;;;;4996735;28;19917;-62
2022/01/31 03:46:26;;;;;;;;;;;5.80;72.90;;;;;;4996727;28;19909;-62
2022/01/31 03:48:51;;;;;;;;;;;5.90;72.80;;;;;;4996596;28;19953;-63
2022/01/31 03:51:17;;;;;;;;;;;5.80;72.40;;;;;;4996794;28;19910;-63
2022/01/31 03:53:43;;;;;;;;;;;6.00;72.80;;;;;;4996392;28;20407;-64
2022/01/31 03:56:09;;;;;;;;;;;6.20;71.30;;;;;;4996457;28;20290;-62
2022/01/31 03:58:34;;;;;;;;;;;6.20;71.50;;;;;;4996426;28;19910;-62
2022/01/31 04:01:00;;;;;;;;;;;6.20;71.90;;;;;;4996346;28;20407;-62
2022/01/31 04:03:26;;;;;;;;;;;6.10;72.60;;;;;;4996447;28;19988;-63
2022/01/31 04:05:51;;;;;;;;;;;6.10;72.60;;;;;;4996230;28;20378;-62
2022/01/31 04:08:17;;;;;;;;;;;6.00;73.10;;;;;;4996003;28;19910;-63
2022/01/31 04:10:43;;;;;;;;;;;5.90;73.90;;;;;;4995925;28;19961;-62
2022/01/31 04:13:08;;;;;;;;;;;5.80;74.00;;;;;;4996438;28;19949;-62
2022/01/31 04:15:34;;;;;;;;;;;5.70;75.00;;;;;;4996220;28;19922;-62
2022/01/31 04:18:00;;;;;;;;;;;5.60;75.90;;;;;;4996274;28;19910;-63
2022/01/31 04:20:26;;;;;;;;;;;5.60;75.70;;;;;;4996052;28;19937;-62
2022/01/31 04:23:02;;;;;;;;;;;5.70;74.90;;;;;;4996221;28;19914;-62
2022/01/31 04:25:30;;;;;;;;;;;5.90;73.10;;;;;;4996107;28;19917;-62
2022/01/31 04:28:04;;;;;;;;;;;6.10;71.40;;;;;;4996031;28;20328;-62
2022/01/31 04:30:31;;;;;;;;;;;6.40;70.70;;;;;;4995810;28;19918;-62
2022/01/31 04:32:57;;;;;;;;;;;6.40;71.00;;;;;;4995718;28;19910;-62
2022/01/31 04:35:22;;;;;;;;;;;6.20;72.20;;;;;;4995803;28;19957;-62
2022/01/31 04:37:48;;;;;;;;;;;6.00;73.40;;;;;;4996013;28;19917;-63
2022/01/31 04:40:14;;;;;;;;;;;5.90;74.00;;;;;;4995498;28;20012;-63
2022/01/31 04:42:44;;;;;;;;;;;5.90;74.00;;;;;;4995626;28;20326;-63
2022/01/31 04:45:10;;;;;;;;;;;6.00;73.90;;;;;;4995507;28;19911;-63
2022/01/31 04:47:36;;;;;;;;;;;6.00;74.50;;;;;;4995538;28;19914;-62
2022/01/31 04:50:03;;;;;;;;;;;6.10;74.30;;;;;;4995675;28;20004;-63
2022/01/31 04:52:28;;;;;;;;;;;6.10;74.80;;;;;;4995577;28;19909;-62
2022/01/31 04:54:54;;;;;;;;;;;6.00;75.30;;;;;;4995636;28;19909;-63
2022/01/31 04:57:19;;;;;;;;;;;6.10;74.30;;;;;;4995305;28;19933;-63
2022/01/31 04:59:45;;;;;;;;;;;6.40;72.40;;;;;;4995136;28;19949;-62
2022/01/31 05:02:10;;;;;;;;;;;6.60;70.90;;;;;;4995361;28;19964;-62
2022/01/31 05:04:36;;;;;;;;;;;6.60;70.90;;;;;;4995294;28;19910;-62
2022/01/31 05:07:02;;;;;;;;;;;6.60;71.60;;;;;;4995300;28;19910;-62
2022/01/31 05:09:28;;;;;;;;;;;6.50;71.40;;;;;;4995028;28;20393;-63
2022/01/31 05:11:54;;;;;;;;;;;6.60;70.70;;;;;;4995028;28;19910;-63
2022/01/31 05:14:20;;;;;;;;;;;6.70;68.90;;;;;;4995067;28;19940;-63
2022/01/31 05:16:45;;;;;;;;;;;6.80;68.30;;;;;;5005721;23;19898;-66
2022/01/31 05:19:11;;;;;;;;;;;6.80;69.40;;;;;;4975749;28;19918;-66
2022/01/31 05:21:38;;;;;;;;;;;6.80;69.60;;;;;;4975595;28;20335;-64
2022/01/31 05:24:04;;;;;;;;;;;7.00;68.70;;;;;;4975692;28;19910;-67
2022/01/31 05:26:29;;;;;;;;;;;6.90;68.40;;;;;;4975510;28;19973;-71
2022/01/31 05:28:55;;;;;;;;;;;7.00;68.40;;;;;;4975565;28;19918;-71
2022/01/31 05:31:20;;;;;;;;;;;7.00;69.00;;;;;;4988274;28;19918;-71
2022/01/31 05:33:46;;;;;;;;;;;7.10;69.90;;;;;;4982164;28;19916;-72
2022/01/31 05:36:12;;;;;;;;;;;7.00;69.70;;;;;;4975190;28;20264;-64
2022/01/31 05:38:39;;;;;;;;;;;6.90;70.10;;;;;;4975429;28;20286;-69
2022/01/31 05:41:07;;;;;;;;;;;6.70;70.80;;;;;;4975213;28;19920;-70
2022/01/31 05:43:33;;;;;;;;;;;6.60;71.70;;;;;;4975263;28;19910;-66
2022/01/31 05:45:59;;;;;;;;;;;6.50;72.10;;;;;;4975269;28;19997;-71
2022/01/31 05:48:25;;;;;;;;;;;6.40;72.80;;;;;;4975017;28;20299;-72
2022/01/31 05:50:50;;;;;;;;;;;6.70;74.10;;;;;;4975143;28;19915;-72
2022/01/31 05:53:16;;;;;;;;;;;7.10;73.70;;;;;;4975057;28;19956;-72
2022/01/31 05:55:44;;;;;;;;;;;7.30;72.90;;;;;;4975216;28;19937;-65
2022/01/31 05:58:09;;;;;;;;;;;7.50;71.90;;;;;;4974940;28;19910;-66
2022/01/31 06:00:36;;;;;;;;;;;7.70;70.80;;;;;;4975090;28;19917;-69
2022/01/31 06:03:01;;;;;;;;;;;7.70;70.40;;;;;;4974913;28;19988;-65
2022/01/31 06:05:27;;;;;;;;;;;7.80;70.40;;;;;;4974577;28;19950;-64
2022/01/31 06:07:52;;;;;;;;;;;7.80;69.40;;;;;;4974983;28;19910;-64
2022/01/31 06:10:18;;;;;;;;;;;7.90;69.70;;;;;;4974742;28;20405;-65
2022/01/31 06:12:45;;;;;;;;;;;7.90;69.80;;;;;;4957425;28;19996;-63
2022/01/31 06:15:10;;;;;;;;;;;7.90;69.90;;;;;;4975023;28;20012;-64
2022/01/31 06:17:36;;;;;;;;;;;8.00;69.80;;;;;;4976991;28;20069;-64
2022/01/31 06:20:02;;;;;;;;;;;8.00;70.80;;;;;;4980449;28;19972;-65
2022/01/31 06:22:28;;;;;;;;;;;8.00;70.60;;;;;;4978142;28;19968;-65
2022/01/31 06:24:53;;;;;;;;;;;7.80;70.40;;;;;;4978369;28;19922;-65
2022/01/31 06:27:19;;;;;;;;;;;7.70;70.50;;;;;;4975774;28;19966;-64
2022/01/31 06:29:46;;;;;;;;;;;7.60;70.90;;;;;;4974948;28;20259;-64
2022/01/31 06:32:12;;;;;;;;;;;7.50;71.50;;;;;;4975919;28;19910;-63
2022/01/31 06:34:38;;;;;;;;;;;7.30;72.30;;;;;;4978478;28;20397;-64
2022/01/31 06:37:04;;;;;;;;;;;7.30;73.00;;;;;;4978728;28;19910;-65
2022/01/31 06:39:30;;;;;;;;;;;7.40;72.80;;;;;;4978542;28;19968;-66
2022/01/31 06:41:56;;;;;;;;;;;7.40;72.60;;;;;;4978411;28;19916;-64
2022/01/31 06:44:21;;;;;;;;;;;7.50;73.10;;;;;;4978338;28;19910;-63
2022/01/31 06:46:48;;;;;;;;;;;7.50;72.70;;;;;;4978227;28;19910;-63
2022/01/31 06:49:13;;;;;;;;;;;7.50;72.50;;;;;;4978152;28;19922;-67
2022/01/31 06:51:39;;;;;;;;;;;7.40;72.90;;;;;;4978186;28;19910;-64
2022/01/31 06:54:06;;;;;;;;;;;7.40;73.80;;;;;;4978034;28;19910;-65
2022/01/31 06:56:35;;;;;;;;;;;7.40;73.50;;;;;;4978019;28;19926;-64
2022/01/31 06:59:02;;;;;;;;;;;7.30;74.00;;;;;;4978139;28;19945;-64
2022/01/31 07:01:27;;;;;;;;;;;7.30;74.10;;;;;;4977940;28;19910;-67
2022/01/31 07:03:54;;;;;;;;;;;7.40;74.30;;;;;;4978109;28;19910;-64
2022/01/31 07:06:20;;;;;;;;;;;7.30;74.50;;;;;;4976547;28;19917;-67
2022/01/31 07:08:46;;;;;;;;;;;7.30;74.70;;;;;;4977644;28;19922;-64
2022/01/31 07:11:17;;;;;;;;;;;7.30;75.10;;;;;;4977659;28;19957;-65
2022/01/31 07:13:47;;;;;;;;;;;7.40;75.20;;;;;;4977744;28;19917;-65
2022/01/31 07:16:12;;;;;;;;;;;7.60;73.60;;;;;;4977814;28;20366;-65
2022/01/31 07:18:38;;;;;;;;;;;7.80;72.70;;;;;;4977753;28;19977;-66
2022/01/31 07:21:05;;;;;;;;;;;7.90;73.00;;;;;;4978041;28;20305;-66
2022/01/31 07:24:02;;;;;;;;;;;7.80;73.10;;;;;;4977339;28;20000;-64
2022/01/31 07:26:16;;;;;;;;;;;7.80;73.10;;;;;;4976027;28;20382;-67
2022/01/31 07:28:42;;;;;;;;;;;7.80;73.90;;;;;;4977211;28;19925;-63
2022/01/31 07:31:08;;;;;;;;;;;7.90;75.30;;;;;;4977514;28;19910;-61
2022/01/31 07:33:34;;;;;;;;;;;8.20;81.20;;;;;;4977251;28;19911;-63
2022/01/31 07:35:59;;;;;;;;;;;8.80;78.10;;;;;;4977452;28;19945;-63
2022/01/31 07:38:25;;;;;;;;;;;9.40;77.30;;;;;;4977422;28;20359;-64
2022/01/31 07:40:51;;;;;;;;;;;9.80;70.90;;;;;;4976327;28;20355;-64
2022/01/31 07:43:17;;;;;;;;;;;9.90;68.10;;;;;;4976205;28;19910;-63
2022/01/31 07:45:42;;;;;;;;;;;10.00;68.10;;;;;;4977041;28;19929;-64
2022/01/31 07:48:08;;;;;;;;;;;10.00;68.70;;;;;;4977111;28;20389;-70
2022/01/31 07:50:36;;;;;;;;;;;10.20;69.30;;;;;;4977006;28;19915;-67
2022/01/31 07:53:03;;;;;;;;;;;10.20;68.20;;;;;;4976956;28;19914;-65
2022/01/31 07:55:29;;;;;;;;;;;10.30;69.50;;;;;;4977085;28;19910;-66
2022/01/31 07:57:54;;;;;;;;;;;10.30;69.30;;;;;;4977267;28;19979;-66
2022/01/31 08:00:20;;;;;;;;;;;10.40;69.30;;;;;;4976851;28;19980;-66
2022/01/31 08:02:45;;;;;;;;;;;10.60;69.00;;;;;;4977025;28;19910;-69
2022/01/31 08:05:11;;;;;;;;;;;10.70;68.00;;;;;;4976787;28;19917;-69
2022/01/31 08:07:37;;;;;;;;;;;10.80;69.40;;;;;;4976926;28;19914;-67
2022/01/31 08:10:03;;;;;;;;;;;10.90;66.70;;;;;;4976117;28;19976;-70
2022/01/31 08:12:30;;;;;;;;;;;10.80;66.30;;;;;;4976727;28;19910;-69
2022/01/31 08:15:02;;;;;;;;;;;10.70;66.90;;;;;;4977049;28;19910;-75
2022/01/31 08:17:28;;;;;;;;;;;10.80;67.20;;;;;;4987094;28;19929;-73
2022/01/31 08:19:53;;;;;;;;;;;10.60;67.40;;;;;;4984708;28;19961;-73
2022/01/31 08:22:19;;;;;;;;;;;10.30;68.80;;;;;;4974667;28;20333;-68
2022/01/31 08:24:44;;;;;;;;;;;10.20;69.10;;;;;;4975983;28;20306;-70
2022/01/31 08:27:10;;;;;;;;;;;10.10;69.30;;;;;;4975965;28;20267;-71
2022/01/31 08:29:38;;;;;;;;;;;10.00;69.30;;;;;;4975712;28;19962;-74
2022/01/31 08:32:16;;;;;;;;;;;10.10;70.00;;;;;;4975654;28;19911;-68
2022/01/31 08:37:27;;;;;;;;;;;10.00;70.30;;;;;;4975251;28;19918;-71
2022/01/31 08:39:53;;;;;;;;;;;10.00;70.40;;;;;;4974266;28;19910;-67
2022/01/31 08:42:19;;;;;;;;;;;10.10;70.30;;;;;;4975376;28;20000;-71
2022/01/31 08:44:46;;;;;;;;;;;10.00;70.60;;;;;;4975273;28;20439;-72
2022/01/31 08:47:11;;;;;;;;;;;10.00;70.80;;;;;;4975188;28;20005;-71
2022/01/31 08:49:37;;;;;;;;;;;9.90;70.70;;;;;;4974904;28;20008;-71
2022/01/31 08:52:03;;;;;;;;;;;9.90;70.70;;;;;;4975771;28;19911;-70
2022/01/31 08:54:29;;;;;;;;;;;9.90;70.90;;;;;;4975578;28;19917;-68
2022/01/31 08:56:54;;;;;;;;;;;10.00;70.80;;;;;;4976069;28;20370;-68
2022/01/31 08:59:23;;;;;;;;;;;9.90;71.20;;;;;;4975888;28;19917;-65
2022/01/31 09:01:54;;;;;;;;;;;9.90;71.60;;;;;;4975391;28;19918;-69
2022/01/31 09:04:47;;;;;;;;;;;9.90;71.30;;;;;;4975226;28;19910;-69
2022/01/31 09:07:14;;;;;;;;;;;9.90;71.10;;;;;;4974578;28;19989;-69
2022/01/31 09:09:40;;;;;;;;;;;10.00;71.10;;;;;;4975330;28;19918;-68
2022/01/31 09:12:08;;;;;;;;;;;10.00;71.40;;;;;;4975064;28;19910;-71
2022/01/31 09:14:34;;;;;;;;;;;10.00;71.00;;;;;;4975484;28;20348;-72
2022/01/31 09:17:00;;;;;;;;;;;10.00;71.10;;;;;;4975047;28;20030;-72
2022/01/31 09:19:26;;;;;;;;;;;10.00;71.80;;;;;;4976090;28;19910;-68
2022/01/31 09:21:52;;;;;;;;;;;9.80;72.20;;;;;;4976174;28;20270;-70
2022/01/31 09:24:18;;;;;;;;;;;9.60;73.20;;;;;;4976408;28;19914;-72
2022/01/31 09:26:44;;;;;;;;;;;9.70;73.50;;;;;;4976534;28;20353;-72
2022/01/31 09:29:09;;;;;;;;;;;9.70;73.50;;;;;;4976542;28;19964;-74
2022/01/31 09:31:35;;;;;;;;;;;9.70;73.70;;;;;;4975548;28;20335;-71
2022/01/31 09:34:00;;;;;;;;;;;9.70;74.30;;;;;;4975787;28;19914;-72
2022/01/31 09:36:27;;;;;;;;;;;9.70;74.60;;;;;;4975816;28;20231;-72
2022/01/31 09:38:53;;;;;;;;;;;9.80;74.90;;;;;;4976599;28;19910;-69
2022/01/31 09:41:22;;;;;;;;;;;9.90;75.60;;;;;;4975708;28;20358;-74
2022/01/31 09:44:05;;;;;;;;;;;10.00;75.10;;;;;;4975517;28;20334;-71
2022/01/31 09:49:09;;;;;;;;;;;9.90;75.40;;;;;;4974831;28;19918;-72
2022/01/31 09:51:35;;;;;;;;;;;9.90;75.90;;;;;;4975084;28;19937;-71
2022/01/31 09:54:02;;;;;;;;;;;9.90;76.00;;;;;;4975025;28;19910;-71
2022/01/31 09:56:32;;;;;;;;;;;9.80;76.10;;;;;;4975151;28;19910;-71
2022/01/31 09:58:58;;;;;;;;;;;9.80;76.30;;;;;;4974677;28;19984;-68
2022/01/31 10:01:28;;;;;;;;;;;9.70;76.80;;;;;;4974896;28;19960;-68
2022/01/31 10:03:57;;;;;;;;;;;9.70;76.80;;;;;;4973981;28;20382;-73
2022/01/31 10:06:30;;;;;;;;;;;9.70;77.50;;;;;;4970745;28;20366;-68
2022/01/31 10:09:07;;;;;;;;;;;9.80;76.50;;;;;;4973892;28;19922;-73
2022/01/31 10:11:41;;;;;;;;;;;9.70;77.00;;;;;;4971648;28;20366;-69
2022/01/31 10:16:55;;;;;;;;;;;9.70;77.10;;;;;;4973836;28;19933;-72
2022/01/31 10:19:21;;;;;;;;;;;9.80;77.00;;;;;;4973690;28;20364;-71
2022/01/31 10:22:03;;;;;;;;;;;9.80;76.60;;;;;;4973619;28;19917;-71
2022/01/31 10:24:30;;;;;;;;;;;9.90;76.60;;;;;;4973678;28;19911;-69
2022/01/31 10:26:56;;;;;;;;;;;9.80;76.40;;;;;;4974299;28;19960;-71
2022/01/31 10:29:22;;;;;;;;;;;9.90;76.60;;;;;;4974169;28;19957;-71
2022/01/31 10:32:01;;;;;;;;;;;10.00;76.20;;;;;;4974671;28;19910;-69
2022/01/31 10:34:28;;;;;;;;;;;10.00;76.10;;;;;;4974260;28;19917;-72
2022/01/31 10:36:54;;;;;;;;;;;10.00;76.60;;;;;;4976201;28;20032;-68
2022/01/31 10:53:12;;;;;;;;;;;10.00;76.40;;;;;;4974694;28;20274;-74
2022/01/31 10:55:38;;;;;;;;;;;10.00;76.50;;;;;;4974520;28;19910;-74
2022/01/31 10:58:04;;;;;;;;;;;10.00;76.70;;;;;;4975019;28;19914;-74
2022/01/31 11:00:34;;;;;;;;;;;10.00;76.70;;;;;;4974398;28;19941;-71
2022/01/31 11:03:19;;;;;;;;;;;9.90;76.80;;;;;;4975248;28;19911;-70
2022/01/31 11:05:48;;;;;;;;;;;10.00;76.70;;;;;;4974901;28;19914;-71
2022/01/31 11:08:14;;;;;;;;;;;10.00;76.70;;;;;;4974526;28;19910;-73
2022/01/31 11:10:39;;;;;;;;;;;10.00;76.90;;;;;;4974268;28;19972;-71
2022/01/31 11:13:06;;;;;;;;;;;9.90;77.30;;;;;;4974360;28;19960;-70
2022/01/31 11:15:31;;;;;;;;;;;10.00;77.00;;;;;;4974220;28;19910;-73
2022/01/31 11:17:59;;;;;;;;;;;10.00;76.60;;;;;;4974585;28;19922;-70
2022/01/31 11:20:24;;;;;;;;;;;10.10;76.50;;;;;;4977542;28;19918;-70
2022/01/31 11:22:56;;;;;;;;;;;10.10;76.40;;;;;;4977690;28;19910;-70
2022/01/31 11:25:26;;;;;;;;;;;10.10;76.30;;;;;;4977722;28;19957;-72
2022/01/31 11:27:59;;;;;;;;;;;10.20;76.40;;;;;;4977441;28;20022;-72
2022/01/31 11:30:25;;;;;;;;;;;10.20;76.10;;;;;;4977381;28;19929;-69
2022/01/31 11:32:51;;;;;;;;;;;10.20;75.80;;;;;;4977411;28;19910;-68
2022/01/31 11:35:17;;;;;;;;;;;10.20;76.20;;;;;;4977380;28;19992;-71
2022/01/31 11:37:42;;;;;;;;;;;10.10;76.60;;;;;;4977501;28;19961;-73
2022/01/31 11:40:09;;;;;;;;;;;10.00;77.40;;;;;;4977210;28;20028;-72
2022/01/31 11:42:35;;;;;;;;;;;10.10;76.90;;;;;;4977283;28;19917;-70
2022/01/31 11:45:03;;;;;;;;;;;10.10;77.00;;;;;;4977160;28;20330;-73
2022/01/31 11:47:30;;;;;;;;;;;10.10;77.10;;;;;;4977227;28;19952;-73
2022/01/31 11:49:58;;;;;;;;;;;10.10;77.30;;;;;;4977119;28;19918;-70
2022/01/31 11:52:24;;;;;;;;;;;10.10;77.10;;;;;;4977174;28;19914;-70
2022/01/31 11:54:51;;;;;;;;;;;10.10;77.20;;;;;;4977248;28;19949;-69
2022/01/31 11:57:21;;;;;;;;;;;10.20;77.00;;;;;;4977393;28;19957;-69
2022/01/31 11:59:50;;;;;;;;;;;10.20;76.80;;;;;;4977012;28;20009;-69
2022/01/31 12:02:18;;;;;;;;;;;10.20;76.70;;;;;;4977107;28;20329;-72
2022/01/31 12:04:45;;;;;;;;;;;10.20;76.70;;;;;;4976920;28;19910;-72
2022/01/31 12:07:29;;;;;;;;;;;10.20;76.40;;;;;;4977050;28;20005;-71
2022/01/31 12:09:56;;;;;;;;;;;10.20;77.30;;;;;;4976775;28;19922;-75
2022/01/31 12:12:41;;;;;;;;;;;10.20;76.80;;;;;;4977104;28;20263;-73
2022/01/31 12:15:36;;;;;;;;;;;10.30;76.50;;;;;;4977024;28;19910;-73
2022/01/31 12:23:55;;;;;;;;;;;10.40;76.00;;;;;;4977169;28;20329;-75
2022/01/31 12:26:30;;;;;;;;;;;10.50;75.70;;;;;;4988991;28;19933;-74
2022/01/31 12:28:57;;;;;;;;;;;10.60;75.60;;;;;;4981526;28;19974;-74
2022/01/31 12:31:30;;;;;;;;;;;10.50;75.70;;;;;;4976040;28;20343;-73
2022/01/31 12:33:56;;;;;;;;;;;10.50;75.80;;;;;;4976230;28;19952;-73
2022/01/31 12:36:36;;;;;;;;;;;10.50;76.00;;;;;;4976515;28;19911;-70
2022/01/31 12:39:20;;;;;;;;;;;10.40;76.40;;;;;;4976166;28;19910;-74
2022/01/31 12:41:46;;;;;;;;;;;10.40;77.90;;;;;;4976633;28;19910;-73
2022/01/31 12:44:30;;;;;;;;;;;10.40;79.00;;;;;;4976306;28;20267;-69
2022/01/31 12:47:14;;;;;;;;;;;10.40;78.80;;;;;;4976277;28;19911;-69
2022/01/31 12:49:40;;;;;;;;;;;10.50;79.30;;;;;;4976279;28;20004;-72
2022/01/31 12:52:07;;;;;;;;;;;10.60;79.00;;;;;;4976015;28;19979;-70
2022/01/31 12:54:33;;;;;;;;;;;10.50;78.50;;;;;;4976136;28;19911;-71
2022/01/31 12:57:03;;;;;;;;;;;10.60;78.30;;;;;;4974606;28;19946;-70
2022/01/31 12:59:29;;;;;;;;;;;10.60;78.70;;;;;;4975384;28;19993;-72
2022/01/31 13:01:55;;;;;;;;;;;10.60;78.10;;;;;;4975999;28;20388;-67
2022/01/31 13:04:22;;;;;;;;;;;10.70;77.40;;;;;;4975683;28;19950;-71
2022/01/31 13:06:51;;;;;;;;;;;10.70;76.60;;;;;;4975506;28;20374;-71
2022/01/31 13:09:19;;;;;;;;;;;10.60;76.70;;;;;;4975297;28;20374;-70
2022/01/31 13:11:46;;;;;;;;;;;10.60;77.10;;;;;;4973445;28;19957;-72
2022/01/31 13:14:17;;;;;;;;;;;10.50;77.30;;;;;;4957923;28;19938;-75
2022/01/31 13:16:50;;;;;;;;;;;10.70;77.20;;;;;;4975128;28;20021;-74
2022/01/31 13:19:23;;;;;;;;;;;10.80;76.60;;;;;;4975239;28;19986;-74
2022/01/31 13:21:49;;;;;;;;;;;10.80;76.30;;;;;;4974946;28;20005;-69
2022/01/31 13:24:15;;;;;;;;;;;10.90;77.10;;;;;;4975086;28;19968;-67
2022/01/31 13:26:51;;;;;;;;;;;11.00;75.40;;;;;;4971180;28;19911;-67
2022/01/31 13:29:30;;;;;;;;;;;11.00;74.80;;;;;;4955381;28;20382;-69
2022/01/31 13:31:56;;;;;;;;;;;11.00;75.10;;;;;;4954287;29;20355;-74
2022/01/31 13:34:40;;;;;;;;;;;11.00;75.20;;;;;;4955517;28;19911;-75
2022/01/31 13:37:25;;;;;;;;;;;11.00;75.30;;;;;;4955514;29;20228;-69
2022/01/31 13:39:57;;;;;;;;;;;10.90;75.60;;;;;;4955386;28;19910;-71
2022/01/31 13:42:26;;;;;;;;;;;10.90;75.50;;;;;;4954538;28;19911;-69
2022/01/31 13:44:54;;;;;;;;;;;11.00;75.40;;;;;;4955538;29;19910;-72
2022/01/31 13:47:36;;;;;;;;;;;10.90;76.70;;;;;;4954219;29;19914;-71
2022/01/31 13:50:03;;;;;;;;;;;11.00;75.80;;;;;;4955273;28;20503;-65
2022/01/31 13:52:33;;;;;;;;;;;11.10;75.40;;;;;;4955396;29;19911;-68
2022/01/31 13:54:59;;;;;;;;;;;11.10;75.30;;;;;;4955632;29;20089;-67
2022/01/31 13:57:25;;;;;;;;;;;11.30;74.70;;;;;;4955566;29;20481;-70
2022/01/31 13:59:51;;;;;;;;;;;11.20;74.80;;;;;;4955435;28;19910;-71
2022/01/31 14:02:18;;;;;;;;;;;11.20;74.80;;;;;;4955757;28;19910;-63
2022/01/31 14:04:44;;;;;;;;;;;11.20;74.90;;;;;;4955550;29;19910;-66
2022/01/31 14:07:22;;;;;;;;;;;11.30;74.80;;;;;;4954110;28;19917;-70
2022/01/31 14:09:48;;;;;;;;;;;11.30;74.50;;;;;;4953784;28;19964;-70
2022/01/31 14:12:14;;;;;;;;;;;11.30;74.50;;;;;;4955423;29;19946;-75
2022/01/31 14:14:39;;;;;;;;;;;11.30;73.70;;;;;;4955198;28;19911;-69
2022/01/31 14:17:07;;;;;;;;;;;11.30;73.50;;;;;;4955283;29;19923;-67
2022/01/31 14:19:33;;;;;;;;;;;11.40;73.50;;;;;;4955473;28;19915;-76
2022/01/31 14:21:58;;;;;;;;;;;11.40;73.20;;;;;;4955280;29;19910;-70
2022/01/31 14:24:30;;;;;;;;;;;11.30;73.20;;;;;;4955164;29;19973;-69
2022/01/31 14:26:59;;;;;;;;;;;11.30;73.50;;;;;;4955207;29;20277;-70
2022/01/31 14:29:25;;;;;;;;;;;11.20;73.40;;;;;;4954736;28;19923;-69
2022/01/31 14:31:51;;;;;;;;;;;11.30;73.10;;;;;;4955028;29;19917;-69
2022/01/31 14:34:21;;;;;;;;;;;11.10;73.50;;;;;;4953749;28;19917;-67
2022/01/31 14:36:50;;;;;;;;;;;11.00;73.80;;;;;;4954762;29;20438;-69
2022/01/31 14:47:20;;;;;;;;;;;11.20;73.10;;;;;;4954591;29;19958;-70
2022/01/31 14:49:48;;;;;;;;;;;11.10;71.90;;;;;;4953301;28;19926;-65
2022/01/31 14:52:13;;;;;;;;;;;10.70;72.30;;;;;;4954889;28;19917;-66
2022/01/31 14:54:39;;;;;;;;;;;10.60;73.40;;;;;;4958047;29;19910;-70
2022/01/31 14:57:06;;;;;;;;;;;10.60;73.90;;;;;;4958372;29;19914;-68
2022/01/31 14:59:31;;;;;;;;;;;10.50;74.10;;;;;;4958157;28;19910;-70
2022/01/31 15:01:57;;;;;;;;;;;10.60;74.20;;;;;;4958256;29;19911;-68
2022/01/31 15:04:24;;;;;;;;;;;10.60;73.90;;;;;;4957096;28;19911;-69